Time;durP1;ratioP1;P1;durP2;ratioP2;P2;SDS_P1;SDS_P2;PMS_P1;PMS_P2;Temp;Humidity;BMP_temperature;BMP_pressure;BME280_temperature;BME280_humidity;BME280_pressure;Samples;Min_cycle;Max_cycle;Signal;HPM_P1;HPM_P2
2022/12/28 00:01:28;;;;;;;7.57;1.42;;;;;;;2.68;57.04;101375.53;4924330;29;20326;-79
2022/12/28 00:03:54;;;;;;;3.28;1.70;;;;;;;2.66;57.16;101363.50;4925842;29;20071;-81
2022/12/28 00:06:23;;;;;;;12.82;1.83;;;;;;;2.58;57.15;101368.66;4924498;29;20032;-79
2022/12/28 00:08:52;;;;;;;3.13;1.17;;;;;;;1.86;59.87;101364.19;4935421;28;20112;-80
2022/12/28 00:11:22;;;;;;;8.43;1.52;;;;;;;1.68;60.41;101338.31;4921142;29;20172;-79
2022/12/28 00:13:48;;;;;;;8.70;1.33;;;;;;;1.79;60.99;101346.09;4899227;28;20048;-78
2022/12/28 00:16:29;;;;;;;8.38;1.73;;;;;;;2.18;59.15;101337.63;4899903;29;20032;-72
2022/12/28 00:18:57;;;;;;;5.88;1.95;;;;;;;2.03;59.94;101340.16;4890345;29;20425;-72
2022/12/28 00:21:23;;;;;;;8.57;1.23;;;;;;;2.41;58.59;101329.91;4912927;29;20040;-72
2022/12/28 00:23:54;;;;;;;10.73;1.30;;;;;;;2.86;57.48;101332.53;4909874;28;20091;-76
2022/12/28 00:26:20;;;;;;;3.85;1.55;;;;;;;2.31;59.23;101331.63;4918224;29;20067;-75
2022/12/28 00:28:47;;;;;;;3.33;1.10;;;;;;;2.40;59.07;101329.91;4918106;28;20374;-75
2022/12/28 00:31:13;;;;;;;6.35;1.77;;;;;;;2.26;59.50;101317.00;4921464;29;20043;-74
2022/12/28 00:33:39;;;;;;;21.98;2.75;;;;;;;2.06;59.88;101312.66;4901734;28;20483;-77
2022/12/28 00:36:09;;;;;;;7.78;1.85;;;;;;;2.12;59.28;101307.50;4901735;29;20181;-77
2022/12/28 00:38:37;;;;;;;7.75;1.50;;;;;;;2.41;59.05;101301.53;4915942;28;20047;-76
2022/12/28 00:41:05;;;;;;;6.35;1.08;;;;;;;1.87;60.39;101298.00;4919003;29;20066;-75
2022/12/28 00:43:31;;;;;;;5.88;1.55;;;;;;;2.28;59.63;101292.91;4916858;28;20485;-74
2022/12/28 00:45:57;;;;;;;12.27;1.75;;;;;;;2.06;59.84;101283.44;4918868;29;20035;-78
2022/12/28 00:48:23;;;;;;;8.07;1.90;;;;;;;2.01;59.84;101282.56;4903506;28;20056;-77
2022/12/28 00:50:49;;;;;;;6.72;1.58;;;;;;;1.90;60.11;101273.09;4898038;29;20039;-76
2022/12/28 00:53:15;;;;;;;3.42;1.67;;;;;;;2.00;60.61;101267.94;4927582;29;20063;-75
2022/12/28 00:55:41;;;;;;;3.97;1.30;;;;;;;2.10;59.70;101259.38;4914770;29;20040;-74
2022/12/28 00:58:07;;;;;;;2.97;1.40;;;;;;;2.42;59.33;101251.69;4918244;28;20048;-75
2022/12/28 01:00:33;;;;;;;11.02;2.40;;;;;;;1.64;60.65;101255.00;4916838;29;20102;-74
2022/12/28 01:02:59;;;;;;;3.78;2.03;;;;;;;2.01;60.48;101251.63;4913568;28;20150;-72
2022/12/28 01:05:24;;;;;;;3.47;1.63;;;;;;;1.44;61.85;101252.34;4914421;29;20055;-72
2022/12/28 01:07:50;;;;;;;5.25;1.77;;;;;;;1.95;60.81;101242.16;4914303;28;20231;-74
2022/12/28 01:10:16;;;;;;;7.72;2.33;;;;;;;2.27;59.77;101226.72;4900483;29;20284;-73
2022/12/28 01:12:42;;;;;;;8.35;1.85;;;;;;;2.11;60.11;101245.66;4913173;28;20098;-74
2022/12/28 01:15:10;;;;;;;13.15;2.20;;;;;;;1.97;60.84;101229.28;4916419;29;20126;-74
2022/12/28 01:17:36;;;;;;;2.60;1.60;;;;;;;1.19;62.82;101219.56;4914757;28;20047;-72
2022/12/28 01:20:02;;;;;;;6.32;2.30;;;;;;;2.09;60.55;101206.09;4916066;29;20048;-74
2022/12/28 01:22:28;;;;;;;8.25;1.77;;;;;;;1.87;61.17;101200.06;4913039;28;20043;-72
2022/12/28 01:24:53;;;;;;;10.52;2.58;;;;;;;1.56;62.20;101188.84;4914202;29;20194;-73
2022/12/28 01:27:19;;;;;;;4.80;2.30;;;;;;;2.05;61.15;101188.91;4915485;28;20363;-73
2022/12/28 01:29:44;;;;;;;4.95;2.63;;;;;;;2.20;60.29;101180.28;4914916;29;20039;-72
2022/12/28 01:32:10;;;;;;;5.13;1.45;;;;;;;2.38;59.36;101177.72;4913626;28;20043;-71
2022/12/28 01:34:36;;;;;;;5.13;2.05;;;;;;;1.91;61.10;101170.84;4906144;29;20031;-72
2022/12/28 01:37:01;;;;;;;2.33;1.17;;;;;;;2.18;60.60;101158.81;4914124;28;20106;-74
2022/12/28 01:39:27;;;;;;;5.63;1.90;;;;;;;1.98;60.38;101148.50;4915585;29;20189;-71
2022/12/28 01:41:54;;;;;;;4.20;2.00;;;;;;;2.48;59.50;101142.44;4914253;28;20044;-73
2022/12/28 01:44:22;;;;;;;3.55;2.15;;;;;;;1.68;61.04;101132.16;4917482;29;20455;-72
2022/12/28 01:47:12;;;;;;;3.03;1.52;;;;;;;2.28;59.93;101117.53;4911760;29;20054;-73
2022/12/28 01:49:47;;;;;;;7.53;2.40;;;;;;;2.40;59.97;101113.19;4911420;29;20110;-70
2022/12/28 01:52:20;;;;;;;3.72;1.70;;;;;;;1.67;61.52;101107.25;4911862;28;20170;-70
2022/12/28 01:54:55;;;;;;;7.55;3.05;;;;;;;2.52;59.30;101108.03;4911366;29;20047;-70
2022/12/28 01:57:27;;;;;;;4.10;1.58;;;;;;;2.20;59.96;101101.22;4920865;28;20619;-78
2022/12/28 02:00:03;;;;;;;2.80;1.77;;;;;;;2.37;59.32;101097.75;4925581;29;20031;-75
2022/12/28 02:02:41;;;;;;;8.15;2.47;;;;;;;2.04;60.27;101074.59;4926354;28;20200;-74
2022/12/28 02:05:08;;;;;;;4.82;1.92;;;;;;;2.05;59.66;101060.00;4928425;29;20646;-77
2022/12/28 02:07:41;;;;;;;8.05;4.68;;;;;;;2.37;59.78;101062.47;4913382;28;20127;-75
2022/12/28 02:10:07;;;;;;;10.85;2.15;;;;;;;2.66;58.92;101052.06;4904048;29;20043;-78
2022/12/28 02:12:34;;;;;;;5.65;1.63;;;;;;;2.73;58.60;101055.47;4901914;28;20064;-75
2022/12/28 02:15:00;;;;;;;6.15;2.42;;;;;;;2.12;59.96;101046.22;4902386;29;20051;-76
2022/12/28 02:17:26;;;;;;;4.68;2.20;;;;;;;2.70;58.48;101035.69;4902761;28;20115;-76
2022/12/28 02:19:51;;;;;;;6.70;2.13;;;;;;;2.40;59.63;101030.66;4899233;29;20324;-77
2022/12/28 02:22:49;;;;;;;8.30;2.08;;;;;;;2.35;59.46;101013.50;4897786;28;20158;-70
2022/12/28 02:25:40;;;;;;;3.08;1.58;;;;;;;2.50;58.91;101007.41;4883026;29;20135;-69
2022/12/28 02:28:27;;;;;;;3.55;2.00;;;;;;;2.76;58.54;101009.00;4894632;28;20711;-70
2022/12/28 02:31:04;;;;;;;13.68;2.20;;;;;;;1.93;60.38;100994.69;4892914;29;20036;-70
2022/12/28 02:34:02;;;;;;;3.47;1.70;;;;;;;2.39;59.73;101004.00;4922796;28;20051;-70
2022/12/28 02:36:37;;;;;;;6.65;1.95;;;;;;;2.51;59.14;100993.66;4910472;28;20127;-70
2022/12/28 02:39:22;;;;;;;5.00;2.15;;;;;;;2.46;59.92;100979.03;4911740;29;20035;-70
2022/12/28 02:41:49;;;;;;;7.30;2.72;;;;;;;1.93;60.82;100986.97;4911279;28;20124;-69
2022/12/28 02:50:04;;;;;;;4.50;1.90;;;;;;;2.71;59.03;100967.75;4908099;29;20063;-72
2022/12/28 02:52:58;;;;;;;5.90;2.45;;;;;;;1.99;61.86;100954.28;4900847;28;20063;-70
2022/12/28 02:56:08;;;;;;;4.28;1.88;;;;;;;2.16;61.00;100960.25;4888531;29;20052;-69
2022/12/28 02:59:02;;;;;;;6.32;1.70;;;;;;;1.88;61.98;100954.31;4891486;28;20055;-69
2022/12/28 03:02:03;;;;;;;3.33;1.73;;;;;;;2.16;61.66;100938.78;4886428;28;20071;-72
2022/12/28 03:04:36;;;;;;;5.07;1.70;;;;;;;2.35;61.09;100943.84;4865306;29;20139;-70
2022/12/28 03:10:31;;;;;;;6.60;2.80;;;;;;;2.81;60.28;100918.63;4895741;29;20055;-76
2022/12/28 03:13:41;;;;;;;5.97;1.73;;;;;;;1.91;62.61;100918.25;4895445;28;20651;-74
2022/12/28 03:15:54;;;;;;;3.38;2.00;;;;;;;2.27;62.61;100924.09;4892615;29;20066;-74
2022/12/28 03:32:35;;;;;;;3.17;1.67;;;;;;;2.50;61.95;100880.13;4907275;28;20805;-69
2022/12/28 03:35:02;;;;;;;5.68;2.47;;;;;;;2.40;62.69;100878.44;4911692;29;20068;-72
2022/12/28 03:37:39;;;;;;;3.22;1.67;;;;;;;2.02;64.14;100879.50;4911295;28;20123;-71
2022/12/28 03:40:23;;;;;;;4.55;2.40;;;;;;;2.27;62.92;100872.53;4914030;29;20031;-70
2022/12/28 03:45:45;;;;;;;2.50;1.85;;;;;;;2.42;62.42;100858.66;4909056;29;20042;-72
2022/12/28 03:48:12;;;;;;;5.18;2.90;;;;;;;1.82;64.08;100846.97;4911112;28;20203;-69
2022/12/28 03:50:41;;;;;;;5.25;2.83;;;;;;;2.47;62.23;100831.13;4910008;29;20030;-70
2022/12/28 03:53:08;;;;;;;6.07;2.00;;;;;;;2.60;61.84;100853.41;4912582;28;20055;-72
2022/12/28 03:55:39;;;;;;;3.88;2.03;;;;;;;1.88;64.19;100839.19;4901585;29;20036;-69
2022/12/28 03:58:05;;;;;;;5.10;2.15;;;;;;;1.73;64.55;100821.22;4928205;28;20516;-72
2022/12/28 04:00:31;;;;;;;4.30;2.13;;;;;;;2.01;64.74;100844.28;4911884;28;20099;-70
2022/12/28 04:02:58;;;;;;;6.55;2.38;;;;;;;2.35;63.47;100844.94;4913650;28;20035;-70
2022/12/28 04:05:23;;;;;;;9.90;2.20;;;;;;;2.70;61.85;100838.69;4900384;29;20174;-71
2022/12/28 04:07:49;;;;;;;9.52;2.58;;;;;;;1.77;64.73;100825.47;4908123;28;20253;-71
2022/12/28 04:10:15;;;;;;;4.60;2.95;;;;;;;2.03;64.36;100809.06;4914050;29;20674;-70
2022/12/28 04:12:41;;;;;;;5.68;1.73;;;;;;;2.40;63.36;100813.97;4917947;28;20044;-76
2022/12/28 04:15:32;;;;;;;5.30;2.35;;;;;;;2.44;63.72;100803.59;4899403;29;20043;-70
2022/12/28 04:18:00;;;;;;;4.28;2.08;;;;;;;2.10;64.77;100805.56;4928791;28;20047;-70
2022/12/28 04:20:25;;;;;;;7.82;2.30;;;;;;;1.78;65.63;100773.09;4908678;29;20785;-70
2022/12/28 04:22:51;;;;;;;3.72;2.13;;;;;;;2.33;64.18;100779.63;4911372;28;20402;-71
2022/12/28 04:25:17;;;;;;;8.38;2.13;;;;;;;2.20;64.61;100781.44;4913696;29;20165;-70
2022/12/28 04:27:42;;;;;;;7.05;2.65;;;;;;;1.97;65.52;100778.13;4912576;28;20507;-71
2022/12/28 04:30:23;;;;;;;2.83;1.98;;;;;;;2.26;64.50;100776.22;4902921;29;20078;-71
2022/12/28 04:32:49;;;;;;;6.45;2.47;;;;;;;2.35;63.76;100776.19;4912038;28;20130;-70
2022/12/28 04:35:14;;;;;;;7.95;2.75;;;;;;;2.70;62.82;100775.03;4906094;29;20035;-70
2022/12/28 04:37:47;;;;;;;5.05;2.35;;;;;;;2.62;63.85;100763.91;4908291;28;20051;-72
2022/12/28 04:40:12;;;;;;;4.45;2.95;;;;;;;2.50;62.95;100769.19;4914844;29;20098;-70
2022/12/28 04:42:38;;;;;;;7.25;2.58;;;;;;;2.25;65.10;100769.38;4910989;28;20046;-70
2022/12/28 04:45:04;;;;;;;3.30;1.88;;;;;;;1.80;66.26;100770.53;4914048;29;20036;-72
2022/12/28 04:47:29;;;;;;;4.25;2.45;;;;;;;2.16;65.52;100759.13;4912344;28;20572;-73
2022/12/28 04:49:55;;;;;;;4.70;2.38;;;;;;;2.81;63.32;100753.44;4914072;29;21293;-72
2022/12/28 04:52:21;;;;;;;6.13;2.65;;;;;;;2.67;63.78;100757.00;4911187;28;20063;-70
2022/12/28 04:54:47;;;;;;;2.72;1.15;;;;;;;2.31;64.71;100733.22;4910331;29;20032;-72
2022/12/28 04:57:12;;;;;;;4.50;2.10;;;;;;;2.52;64.62;100741.66;4905304;28;20055;-72
2022/12/28 04:59:39;;;;;;;3.92;2.03;;;;;;;2.42;64.85;100740.00;4895463;29;20032;-71
2022/12/28 05:02:05;;;;;;;3.03;1.58;;;;;;;2.49;64.78;100736.53;4901418;28;20048;-73
2022/12/28 05:04:31;;;;;;;3.92;1.85;;;;;;;2.31;65.77;100730.66;4913780;29;20991;-71
2022/12/28 05:06:56;;;;;;;2.85;1.65;;;;;;;2.98;63.21;100711.06;4913105;28;20146;-72
2022/12/28 05:09:23;;;;;;;3.97;2.60;;;;;;;2.60;64.69;100726.97;4912959;29;20043;-71
2022/12/28 05:11:49;;;;;;;3.83;1.73;;;;;;;2.82;63.91;100721.56;4909195;28;20146;-71
2022/12/28 05:14:14;;;;;;;3.95;1.60;;;;;;;2.53;64.55;100723.59;4893277;29;20042;-70
2022/12/28 05:16:40;;;;;;;6.32;1.67;;;;;;;2.28;65.45;100722.06;4894077;28;20032;-69
2022/12/28 05:19:05;;;;;;;3.03;1.98;;;;;;;2.18;65.59;100715.28;4912374;29;20062;-68
2022/12/28 05:21:31;;;;;;;3.90;1.77;;;;;;;3.16;63.28;100730.69;4911359;28;20070;-69
2022/12/28 05:23:56;;;;;;;3.55;2.10;;;;;;;2.98;63.62;100723.13;4889260;29;20127;-68
2022/12/28 05:26:25;;;;;;;3.50;1.38;;;;;;;2.73;64.42;100713.06;4893804;29;20036;-70
2022/12/28 05:28:50;;;;;;;2.72;1.73;;;;;;;2.59;65.32;100725.22;4892594;29;20040;-69
2022/12/28 05:31:18;;;;;;;7.40;1.90;;;;;;;2.85;64.29;100709.50;4893552;29;20063;-71
2022/12/28 05:33:46;;;;;;;2.13;1.10;;;;;;;2.51;65.32;100699.50;4908676;28;20040;-68
2022/12/28 05:36:25;;;;;;;3.00;1.60;;;;;;;2.74;65.35;100721.66;4912924;29;20687;-69
2022/12/28 05:38:52;;;;;;;3.00;1.40;;;;;;;3.32;63.09;100694.38;4911379;29;20051;-70
2022/12/28 05:41:24;;;;;;;1.95;1.00;;;;;;;2.67;64.95;100702.81;4911476;29;20078;-70
2022/12/28 05:43:49;;;;;;;2.87;1.40;;;;;;;3.07;64.00;100702.38;4909319;28;20058;-68
2022/12/28 05:46:26;;;;;;;2.53;1.40;;;;;;;3.18;63.93;100708.28;4910308;29;20044;-68
2022/12/28 05:48:54;;;;;;;3.75;1.65;;;;;;;3.45;62.86;100697.63;4910517;29;20046;-72
2022/12/28 05:51:21;;;;;;;2.78;1.33;;;;;;;2.90;64.94;100697.38;4911169;29;20190;-71
2022/12/28 05:53:47;;;;;;;2.83;1.42;;;;;;;2.92;64.50;100684.47;4909344;28;20048;-73
2022/12/28 05:56:22;;;;;;;2.70;1.83;;;;;;;3.06;64.66;100692.91;4910128;29;20101;-64
2022/12/28 05:58:56;;;;;;;1.55;0.80;;;;;;;3.27;63.18;100678.00;4910153;28;20419;-70
2022/12/28 06:01:24;;;;;;;2.15;1.13;;;;;;;3.44;63.12;100676.09;4908736;29;20075;-66
2022/12/28 06:03:56;;;;;;;4.00;1.20;;;;;;;2.83;64.48;100684.56;4908094;29;20179;-66
2022/12/28 06:06:23;;;;;;;2.83;1.48;;;;;;;3.13;64.07;100691.09;4915687;29;20161;-79
2022/12/28 06:08:49;;;;;;;1.98;1.05;;;;;;;2.71;65.99;100686.41;4914936;28;20160;-76
2022/12/28 06:11:17;;;;;;;2.65;1.20;;;;;;;3.15;64.71;100676.44;4917412;29;20230;-77
2022/12/28 06:13:43;;;;;;;1.20;0.70;;;;;;;2.55;66.42;100670.25;4914650;28;20150;-76
2022/12/28 06:16:15;;;;;;;2.58;1.20;;;;;;;2.86;64.97;100679.38;4918049;29;20471;-77
2022/12/28 06:18:41;;;;;;;2.47;0.95;;;;;;;2.78;66.23;100666.56;4905191;29;20863;-75
2022/12/28 06:21:11;;;;;;;1.13;0.68;;;;;;;3.07;65.01;100668.81;4913855;29;20043;-79
2022/12/28 06:23:37;;;;;;;2.22;0.85;;;;;;;3.24;64.58;100662.56;4905398;28;20078;-70
2022/12/28 06:26:05;;;;;;;1.92;1.00;;;;;;;3.08;65.29;100665.34;4910337;29;20035;-70
2022/12/28 06:28:31;;;;;;;2.13;0.60;;;;;;;3.20;65.00;100659.16;4907044;28;20055;-72
2022/12/28 06:31:02;;;;;;;2.03;1.10;;;;;;;3.42;64.18;100661.50;4914276;29;20035;-73
2022/12/28 06:33:28;;;;;;;3.33;1.10;;;;;;;3.05;65.42;100649.91;4908336;28;20585;-70
2022/12/28 06:35:53;;;;;;;1.58;1.08;;;;;;;3.28;64.60;100641.00;4908326;29;20035;-70
2022/12/28 06:38:19;;;;;;;2.28;1.40;;;;;;;3.12;65.36;100651.53;4909239;28;20262;-70
2022/12/28 06:40:44;;;;;;;1.88;1.02;;;;;;;2.93;66.57;100656.03;4910523;29;20039;-70
2022/12/28 06:43:10;;;;;;;1.42;0.95;;;;;;;2.95;66.26;100645.69;4909368;28;20063;-73
2022/12/28 06:45:36;;;;;;;4.45;1.27;;;;;;;3.23;65.80;100650.53;4910493;29;20079;-77
2022/12/28 06:48:02;;;;;;;2.55;1.45;;;;;;;3.52;64.55;100666.53;4907836;28;20119;-75
2022/12/28 06:50:27;;;;;;;2.33;1.40;;;;;;;3.65;64.08;100661.16;4912463;29;20039;-73
2022/12/28 06:52:53;;;;;;;2.78;1.38;;;;;;;3.77;64.12;100667.03;4913857;29;20051;-73
2022/12/28 06:55:19;;;;;;;2.50;1.35;;;;;;;4.08;62.86;100661.38;4906346;29;20143;-75
2022/12/28 06:57:45;;;;;;;3.05;1.13;;;;;;;4.18;62.56;100654.31;4917237;28;20169;-72
2022/12/28 07:00:11;;;;;;;1.75;1.55;;;;;;;3.55;64.88;100656.13;4911502;29;20039;-69
2022/12/28 07:02:37;;;;;;;2.25;0.98;;;;;;;3.57;65.03;100654.38;4908162;28;20047;-69
2022/12/28 07:05:04;;;;;;;3.25;1.52;;;;;;;3.57;64.96;100641.47;4908710;29;20067;-68
2022/12/28 07:07:30;;;;;;;2.55;1.55;;;;;;;3.84;64.30;100646.25;4909038;28;20238;-69
2022/12/28 07:09:56;;;;;;;4.15;1.35;;;;;;;3.34;65.28;100641.78;4906409;29;20047;-68
2022/12/28 07:12:21;;;;;;;3.70;1.88;;;;;;;3.90;64.46;100659.09;4907492;28;20745;-66
2022/12/28 07:14:47;;;;;;;2.75;1.80;;;;;;;3.73;64.85;100646.41;4906086;29;20150;-71
2022/12/28 07:17:13;;;;;;;3.30;1.90;;;;;;;3.67;65.04;100651.66;4904190;28;20048;-71
2022/12/28 07:19:39;;;;;;;3.80;2.40;;;;;;;3.85;64.80;100654.00;4887364;29;20039;-71
2022/12/28 07:22:04;;;;;;;3.17;1.98;;;;;;;3.50;64.88;100657.94;4886002;29;20051;-69
2022/12/28 07:24:30;;;;;;;4.07;1.90;;;;;;;3.58;65.27;100661.28;4890521;29;20043;-68
2022/12/28 07:26:55;;;;;;;3.22;2.25;;;;;;;3.95;63.96;100662.44;4892048;28;20063;-67
2022/12/28 07:29:21;;;;;;;3.63;2.45;;;;;;;3.71;65.15;100656.75;4907159;29;20044;-67
2022/12/28 07:31:46;;;;;;;3.10;1.92;;;;;;;3.76;65.03;100665.31;4903322;28;20131;-69
2022/12/28 07:34:13;;;;;;;2.38;1.38;;;;;;;3.99;64.76;100661.53;4889152;29;20079;-68
2022/12/28 07:36:39;;;;;;;3.38;2.00;;;;;;;4.08;64.42;100663.97;4901995;28;20086;-69
2022/12/28 07:39:05;;;;;;;2.90;1.63;;;;;;;4.31;63.86;100658.38;4908816;29;20747;-71
2022/12/28 07:41:32;;;;;;;2.67;1.83;;;;;;;4.23;64.23;100662.88;4906527;28;20050;-71
2022/12/28 07:43:59;;;;;;;4.18;2.78;;;;;;;4.35;63.86;100674.72;4908256;29;20473;-68
2022/12/28 07:46:29;;;;;;;3.67;2.70;;;;;;;3.69;66.63;100668.84;4906038;29;20147;-68
2022/12/28 07:48:56;;;;;;;5.03;3.20;;;;;;;4.15;64.98;100673.31;4907200;29;20155;-69
2022/12/28 07:51:22;;;;;;;6.13;4.50;;;;;;;4.41;63.96;100649.59;4892735;29;20764;-69
2022/12/28 07:53:50;;;;;;;5.63;3.63;;;;;;;4.22;64.13;100658.56;4906962;28;20050;-68
2022/12/28 07:56:18;;;;;;;4.85;3.20;;;;;;;4.65;63.36;100673.31;4911013;29;20047;-71
2022/12/28 07:58:49;;;;;;;6.35;3.08;;;;;;;4.11;65.15;100678.56;4907093;28;20055;-71
2022/12/28 08:01:16;;;;;;;4.93;3.03;;;;;;;3.95;65.84;100659.88;4909311;29;20744;-70
2022/12/28 08:03:42;;;;;;;3.65;2.30;;;;;;;4.33;64.70;100661.81;4905804;28;20067;-70
2022/12/28 08:06:13;;;;;;;3.65;2.45;;;;;;;4.08;65.33;100665.69;4913362;29;20039;-71
2022/12/28 08:08:43;;;;;;;3.33;2.60;;;;;;;4.28;65.09;100663.63;4907314;28;20508;-71
2022/12/28 08:11:12;;;;;;;4.72;2.78;;;;;;;4.51;64.16;100670.97;4910798;29;20672;-70
2022/12/28 08:13:40;;;;;;;4.15;2.65;;;;;;;4.40;64.66;100673.75;4905715;28;20043;-71
2022/12/28 08:16:08;;;;;;;4.72;3.28;;;;;;;4.36;64.93;100661.78;4911248;29;20055;-70
2022/12/28 08:18:34;;;;;;;3.83;2.67;;;;;;;4.45;64.40;100667.66;4909181;28;20050;-70
2022/12/28 08:21:05;;;;;;;4.15;2.78;;;;;;;4.41;65.32;100669.44;4894258;29;20028;-71
2022/12/28 08:23:31;;;;;;;4.05;2.88;;;;;;;4.41;65.00;100667.72;4905485;28;20110;-70
2022/12/28 08:26:29;;;;;;;3.55;2.78;;;;;;;4.43;65.07;100663.38;4909294;29;20043;-71
2022/12/28 08:28:57;;;;;;;5.10;2.95;;;;;;;4.99;62.86;100667.53;4904642;29;20052;-71
2022/12/28 08:31:36;;;;;;;4.90;2.88;;;;;;;4.63;64.17;100650.06;4907521;29;20035;-71
2022/12/28 08:34:05;;;;;;;4.90;2.85;;;;;;;4.50;64.74;100663.22;4908405;29;20134;-69
2022/12/28 08:36:31;;;;;;;3.83;2.05;;;;;;;4.64;64.42;100669.03;4906790;28;20060;-70
2022/12/28 08:38:57;;;;;;;4.30;2.97;;;;;;;4.29;65.58;100660.16;4899953;29;20043;-71
2022/12/28 08:41:24;;;;;;;4.10;2.72;;;;;;;4.83;64.06;100661.75;4907999;29;20035;-70
2022/12/28 08:43:51;;;;;;;5.90;3.03;;;;;;;4.68;64.86;100672.44;4906641;29;20043;-71
2022/12/28 08:46:20;;;;;;;3.85;2.55;;;;;;;4.55;65.34;100680.41;4909228;29;20039;-69
2022/12/28 08:48:46;;;;;;;3.33;2.15;;;;;;;4.88;64.09;100672.94;4909834;28;20729;-68
2022/12/28 08:51:13;;;;;;;4.05;2.42;;;;;;;4.48;65.59;100681.41;4912482;29;20062;-70
2022/12/28 08:53:40;;;;;;;3.10;2.53;;;;;;;4.75;64.55;100669.69;4905613;28;20675;-69
2022/12/28 08:56:17;;;;;;;3.97;2.50;;;;;;;4.84;64.89;100673.84;4911310;29;20071;-70
2022/12/28 08:58:44;;;;;;;5.93;2.90;;;;;;;4.88;64.63;100675.50;4889124;28;20047;-69
2022/12/28 09:01:12;;;;;;;4.03;2.50;;;;;;;4.72;64.82;100677.50;4891404;29;20036;-68
2022/12/28 09:03:40;;;;;;;5.13;2.63;;;;;;;5.25;63.16;100688.56;4904148;28;20047;-69
2022/12/28 09:06:09;;;;;;;5.13;3.25;;;;;;;4.62;65.18;100674.22;4910047;29;20325;-69
2022/12/28 09:08:35;;;;;;;5.32;2.58;;;;;;;5.08;63.98;100693.25;4907654;28;20052;-69
2022/12/28 09:11:03;;;;;;;6.28;3.80;;;;;;;4.89;65.04;100699.66;4910277;29;20030;-69
2022/12/28 09:13:29;;;;;;;8.27;4.50;;;;;;;4.75;66.00;100690.41;4907289;28;20489;-71
2022/12/28 09:16:01;;;;;;;5.75;3.60;;;;;;;4.90;65.27;100691.88;4924695;28;20039;-69
2022/12/28 09:18:26;;;;;;;10.17;5.07;;;;;;;5.23;64.19;100692.94;4908765;28;20043;-69
2022/12/28 09:20:54;;;;;;;9.38;5.65;;;;;;;5.32;64.07;100698.81;4910561;29;20283;-69
2022/12/28 09:23:19;;;;;;;9.57;4.80;;;;;;;5.39;63.75;100702.97;4893143;28;20102;-71
2022/12/28 09:25:46;;;;;;;12.05;6.70;;;;;;;5.38;63.93;100706.47;4889898;29;20510;-70
2022/12/28 09:28:11;;;;;;;10.95;6.53;;;;;;;5.13;64.21;100716.47;4888601;28;20059;-68
2022/12/28 09:30:37;;;;;;;8.90;5.85;;;;;;;5.28;64.24;100705.81;4889859;29;20032;-69
2022/12/28 09:35:46;;;;;;;9.68;4.65;;;;;;;5.90;62.42;100712.22;4921313;28;20036;-69
2022/12/28 09:38:12;;;;;;;8.95;5.57;;;;;;;5.54;63.29;100713.00;4895136;28;20055;-69
2022/12/28 09:40:38;;;;;;;10.25;5.40;;;;;;;5.45;63.83;100703.69;4889144;29;20139;-68
2022/12/28 09:43:04;;;;;;;7.60;4.57;;;;;;;5.45;64.16;100702.84;4903091;29;20118;-68
2022/12/28 09:45:31;;;;;;;6.40;4.13;;;;;;;5.45;64.25;100708.03;4906461;29;20047;-68
2022/12/28 09:48:03;;;;;;;6.03;4.32;;;;;;;5.33;64.34;100708.31;4891525;29;20189;-71
2022/12/28 09:50:34;;;;;;;6.55;4.30;;;;;;;5.55;63.74;100708.72;4906968;29;20047;-68
2022/12/28 09:53:21;;;;;;;6.53;4.22;;;;;;;5.63;63.69;100710.22;4905814;28;20051;-69
2022/12/28 09:55:58;;;;;;;7.65;5.22;;;;;;;5.48;63.90;100701.91;4907847;29;20039;-71
2022/12/28 09:58:24;;;;;;;9.38;5.50;;;;;;;5.40;64.20;100715.06;4906377;28;20052;-71
2022/12/28 10:00:53;;;;;;;8.18;5.25;;;;;;;5.88;62.96;100702.75;4908224;29;20031;-70
2022/12/28 10:03:21;;;;;;;7.25;4.78;;;;;;;5.81;62.67;100700.31;4904049;28;20039;-71
2022/12/28 10:05:50;;;;;;;8.18;5.53;;;;;;;5.70;63.74;100702.31;4906474;29;20039;-70
2022/12/28 10:08:19;;;;;;;7.40;4.80;;;;;;;5.47;63.84;100690.72;4907978;28;20934;-70
2022/12/28 10:10:45;;;;;;;9.40;5.10;;;;;;;5.40;64.50;100705.53;4908385;29;20070;-70
2022/12/28 10:13:22;;;;;;;6.70;4.60;;;;;;;5.61;63.99;100698.19;4892623;28;20071;-71
2022/12/28 10:15:48;;;;;;;6.95;3.70;;;;;;;5.04;65.57;100705.41;4887837;29;20086;-71
2022/12/28 10:18:21;;;;;;;7.03;3.80;;;;;;;5.73;63.44;100704.84;4889220;28;20167;-70
2022/12/28 10:20:46;;;;;;;4.88;3.45;;;;;;;5.59;63.85;100698.22;4888748;29;20039;-70
2022/12/28 10:23:17;;;;;;;8.20;3.55;;;;;;;5.74;63.46;100709.13;4887509;28;20036;-71
2022/12/28 10:25:43;;;;;;;5.53;3.53;;;;;;;5.96;62.73;100710.34;4888157;29;20036;-70
2022/12/28 10:28:10;;;;;;;7.18;3.92;;;;;;;5.92;62.48;100705.28;4889617;28;20591;-70
2022/12/28 10:31:05;;;;;;;4.63;2.70;;;;;;;5.51;64.02;100701.88;4872570;29;20688;-70
2022/12/28 10:33:31;;;;;;;4.45;2.88;;;;;;;5.97;62.68;100700.81;4914771;28;20070;-71
2022/12/28 10:35:58;;;;;;;3.83;1.92;;;;;;;5.67;63.24;100698.91;4887839;29;20119;-71
2022/12/28 10:38:33;;;;;;;3.88;2.33;;;;;;;5.50;64.19;100701.00;4886473;28;20052;-71
2022/12/28 10:41:32;;;;;;;7.88;3.45;;;;;;;5.75;63.33;100706.53;4889740;29;20040;-71
2022/12/28 10:43:58;;;;;;;3.90;2.58;;;;;;;5.47;64.60;100701.06;4879735;29;20051;-70
2022/12/28 10:46:24;;;;;;;2.88;2.10;;;;;;;5.60;63.99;100702.53;4888835;29;20040;-70
2022/12/28 10:48:55;;;;;;;3.42;2.70;;;;;;;5.56;63.87;100702.63;4905587;28;20051;-70
2022/12/28 10:51:24;;;;;;;3.75;2.13;;;;;;;5.82;63.43;100696.88;4907295;29;21019;-70
2022/12/28 10:53:53;;;;;;;2.78;1.67;;;;;;;5.78;63.52;100693.47;4884176;29;20197;-71
2022/12/28 10:56:24;;;;;;;2.20;1.63;;;;;;;5.32;65.04;100702.25;4888174;29;20043;-70
2022/12/28 10:58:52;;;;;;;2.90;1.95;;;;;;;5.27;65.56;100698.06;4887472;29;20155;-70
2022/12/28 11:01:24;;;;;;;2.55;1.90;;;;;;;5.28;65.29;100704.94;4884807;29;20043;-71
2022/12/28 11:04:16;;;;;;;1.95;1.05;;;;;;;5.38;65.30;100691.75;4888678;29;20118;-70
2022/12/28 11:06:52;;;;;;;3.55;1.63;;;;;;;5.46;64.88;100689.03;4905585;28;20040;-70
2022/12/28 11:09:26;;;;;;;5.90;2.10;;;;;;;5.40;64.90;100689.97;4922425;28;20387;-70
2022/12/28 11:11:54;;;;;;;2.05;1.02;;;;;;;5.55;64.73;100686.22;4901766;28;20110;-71
2022/12/28 11:14:36;;;;;;;2.10;0.95;;;;;;;5.70;63.86;100678.97;4906868;29;20023;-71
2022/12/28 11:17:13;;;;;;;2.60;1.45;;;;;;;5.53;64.85;100684.56;4901292;28;20072;-70
2022/12/28 11:19:39;;;;;;;2.10;1.27;;;;;;;5.78;63.97;100674.47;4887644;29;20032;-71
2022/12/28 11:22:04;;;;;;;2.25;1.25;;;;;;;5.70;64.46;100663.41;4891543;28;20050;-71
2022/12/28 11:24:30;;;;;;;2.10;1.00;;;;;;;5.28;65.34;100663.47;4905263;29;20816;-70
2022/12/28 11:26:56;;;;;;;2.92;1.15;;;;;;;5.99;63.56;100670.50;4903415;28;20135;-72
2022/12/28 11:29:22;;;;;;;4.03;1.35;;;;;;;6.00;63.32;100657.50;4922666;29;20044;-69
2022/12/28 11:32:11;;;;;;;3.22;2.08;;;;;;;5.87;63.68;100661.28;4903724;28;20451;-71
2022/12/28 11:34:37;;;;;;;1.95;1.25;;;;;;;5.46;64.83;100657.91;4904533;29;20413;-69
2022/12/28 11:37:03;;;;;;;2.63;1.42;;;;;;;5.54;64.84;100649.94;4906408;28;20047;-68
2022/12/28 11:39:31;;;;;;;3.22;1.70;;;;;;;5.83;64.08;100655.31;4907660;29;20505;-72
2022/12/28 11:42:00;;;;;;;3.72;1.50;;;;;;;5.73;64.21;100659.03;4904360;28;20540;-71
2022/12/28 11:44:29;;;;;;;2.75;1.42;;;;;;;6.09;63.37;100653.84;4906389;29;20532;-71
2022/12/28 11:47:03;;;;;;;6.10;1.58;;;;;;;6.01;63.44;100654.00;4904717;28;20052;-68
2022/12/28 11:49:34;;;;;;;2.63;1.35;;;;;;;6.43;62.43;100648.66;4907923;29;20050;-71
2022/12/28 11:52:29;;;;;;;2.60;1.45;;;;;;;5.82;64.03;100652.78;4906371;28;20468;-69
2022/12/28 11:55:01;;;;;;;1.92;1.00;;;;;;;6.21;62.86;100643.13;4907152;29;20067;-69
2022/12/28 11:57:33;;;;;;;;;;;;;;;5.90;63.46;100642.19;4907703;28;20349;-69
2022/12/28 12:00:18;;;;;;;1.45;0.73;;;;;;;6.77;61.54;100645.16;4910953;29;20223;-71
2022/12/28 12:02:55;;;;;;;2.13;1.08;;;;;;;6.19;62.92;100634.53;4906033;28;20304;-70
2022/12/28 12:05:36;;;;;;;1.52;0.90;;;;;;;6.18;63.30;100638.03;4888091;29;20418;-71
2022/12/28 12:08:21;;;;;;;1.38;0.55;;;;;;;6.39;62.57;100636.66;4906561;28;20070;-71
2022/12/28 12:11:07;;;;;;;1.75;0.50;;;;;;;6.24;63.38;100629.25;4922008;28;20040;-70
2022/12/28 12:13:43;;;;;;;2.22;0.60;;;;;;;6.07;63.55;100633.09;4917036;28;20062;-71
2022/12/28 12:16:24;;;;;;;2.33;1.10;;;;;;;6.39;62.65;100625.41;4909806;29;20043;-71